Time;durP1;ratioP1;P1;durP2;ratioP2;P2;SDS_P1;SDS_P2;PMS_P1;PMS_P2;Temp;Humidity;BMP_temperature;BMP_pressure;BME280_temperature;BME280_humidity;BME280_pressure;Samples;Min_cycle;Max_cycle;Signal;HPM_P1;HPM_P2
2021/12/20 00:01:07;;;;;;;7.70;3.40;;;;;;;2.62;78.30;100118.19;1644876;87;25831;-80
2021/12/20 00:03:35;;;;;;;12.23;4.33;;;;;;;2.60;78.44;100121.47;1645080;86;25844;-80
2021/12/20 00:06:02;;;;;;;9.48;4.85;;;;;;;2.56;78.77;100118.78;1665401;85;25848;-81
2021/12/20 00:08:28;;;;;;;7.97;3.22;;;;;;;2.54;78.76;100120.73;1683238;85;26940;-80
2021/12/20 00:10:55;;;;;;;7.83;3.30;;;;;;;2.54;78.98;100119.91;1682928;84;26557;-80
2021/12/20 00:13:22;;;;;;;6.95;3.37;;;;;;;2.54;79.02;100125.19;1683233;85;25804;-80
2021/12/20 00:15:49;;;;;;;5.10;2.65;;;;;;;2.51;78.97;100129.44;1682841;85;25880;-80
2021/12/20 00:18:16;;;;;;;5.45;3.05;;;;;;;2.50;78.72;100128.63;1682819;84;26270;-80
2021/12/20 00:20:42;;;;;;;6.80;2.87;;;;;;;2.49;79.16;100128.75;1682603;85;27458;-80
2021/12/20 00:23:08;;;;;;;7.47;2.85;;;;;;;2.49;79.00;100131.39;1682460;84;25931;-81
2021/12/20 00:25:34;;;;;;;5.95;3.12;;;;;;;2.49;78.99;100135.36;1682642;83;25830;-80
2021/12/20 00:28:01;;;;;;;8.28;2.87;;;;;;;2.49;78.82;100136.20;1682585;85;25969;-80
2021/12/20 00:30:27;;;;;;;14.05;3.30;;;;;;;2.45;79.10;100141.44;1683049;84;25893;-80
2021/12/20 00:32:54;;;;;;;5.75;2.83;;;;;;;2.44;79.18;100134.47;1683057;84;27478;-80
2021/12/20 00:35:24;;;;;;;7.80;3.25;;;;;;;2.44;79.31;100125.73;1682626;85;26206;-80
2021/12/20 00:40:33;;;;;;;5.30;2.83;;;;;;;2.44;79.10;100137.62;1682811;84;25794;-83
2021/12/20 00:43:01;;;;;;;7.40;2.80;;;;;;;2.43;79.11;100131.50;1682992;84;25885;-80
2021/12/20 00:45:34;;;;;;;8.18;3.37;;;;;;;2.44;79.33;100136.30;1682955;84;28263;-81
2021/12/20 00:48:00;;;;;;;5.47;2.75;;;;;;;2.44;79.04;100132.34;1683169;84;26601;-81
2021/12/20 00:50:28;;;;;;;5.75;3.00;;;;;;;2.42;78.86;100131.66;1683005;85;25787;-80
2021/12/20 00:52:55;;;;;;;7.45;3.90;;;;;;;2.40;78.95;100140.19;1683101;85;26471;-82
2021/12/20 00:55:25;;;;;;;5.42;2.72;;;;;;;2.39;79.04;100139.87;1682945;84;26469;-81
2021/12/20 00:57:55;;;;;;;5.35;2.72;;;;;;;2.37;78.88;100144.47;1682769;84;27503;-80
2021/12/20 01:00:26;;;;;;;5.30;2.83;;;;;;;2.35;78.60;100139.34;1683042;84;25366;-81
2021/12/20 01:02:53;;;;;;;;;;;;;;;2.29;78.73;100152.63;1685669;84;25892;-81
2021/12/20 01:05:21;;;;;;;5.75;2.62;;;;;;;2.25;78.81;100139.36;1681315;83;25777;-80
2021/12/20 01:07:47;;;;;;;6.08;3.10;;;;;;;2.23;78.98;100137.83;1673679;84;26562;-80
2021/12/20 01:10:16;;;;;;;7.00;2.77;;;;;;;2.19;78.85;100143.06;1673729;85;27548;-80
2021/12/20 01:12:46;;;;;;;7.53;2.70;;;;;;;2.15;79.02;100137.73;1673418;85;25893;-81
2021/12/20 01:15:16;;;;;;;8.40;3.15;;;;;;;2.12;79.09;100143.29;1673341;85;25863;-80
2021/12/20 01:17:42;;;;;;;6.45;3.42;;;;;;;2.11;79.32;100143.80;1673279;85;26545;-81
2021/12/20 01:20:10;;;;;;;7.78;2.95;;;;;;;2.09;79.11;100138.31;1673709;84;25811;-81
2021/12/20 01:22:37;;;;;;;6.70;3.10;;;;;;;2.07;79.29;100140.27;1673525;85;27463;-80
2021/12/20 01:25:04;;;;;;;7.70;3.02;;;;;;;2.05;79.51;100139.06;1673670;85;25865;-80
2021/12/20 01:27:31;;;;;;;6.37;2.98;;;;;;;2.02;79.62;100135.41;1673525;85;25350;-80
2021/12/20 01:29:57;;;;;;;9.55;3.45;;;;;;;2.01;79.49;100128.45;1674005;85;26409;-80
2021/12/20 01:32:23;;;;;;;6.75;2.67;;;;;;;1.98;79.76;100128.75;1673673;85;25762;-81
2021/12/20 01:34:49;;;;;;;7.95;3.15;;;;;;;1.97;79.75;100131.03;1673660;84;27541;-80
2021/12/20 01:37:16;;;;;;;7.50;3.02;;;;;;;1.94;79.84;100127.86;1673647;85;25790;-81
2021/12/20 01:39:42;;;;;;;8.28;3.25;;;;;;;1.90;79.92;100128.64;1673899;85;25795;-81
2021/12/20 01:42:09;;;;;;;8.90;3.67;;;;;;;1.90;80.13;100128.64;1673744;85;25802;-80
2021/12/20 01:44:36;;;;;;;5.92;3.10;;;;;;;1.87;80.10;100130.23;1674125;85;25852;-81
2021/12/20 01:47:04;;;;;;;7.25;2.42;;;;;;;1.83;80.07;100126.70;1673393;85;28335;-81
2021/12/20 01:49:39;;;;;;;6.50;2.75;;;;;;;1.81;80.26;100129.97;1673937;84;25755;-80
2021/12/20 01:54:26;;;;;;;5.22;2.58;;;;;;;1.74;80.52;100133.66;1673892;85;26614;-81
2021/12/20 01:56:52;;;;;;;6.87;2.83;;;;;;;1.73;80.73;100138.63;1673769;85;25795;-81
2021/12/20 01:59:18;;;;;;;5.00;2.50;;;;;;;1.72;80.82;100129.50;1673890;85;27452;-81
2021/12/20 02:01:48;;;;;;;5.58;2.67;;;;;;;1.71;80.90;100134.45;1673537;85;26567;-80
2021/12/20 02:04:14;;;;;;;6.42;2.90;;;;;;;1.69;80.99;100127.97;1673898;85;26469;-81
2021/12/20 02:06:45;;;;;;;8.83;3.15;;;;;;;1.69;81.11;100124.52;1678944;85;25923;-81
2021/12/20 02:09:14;;;;;;;6.00;2.95;;;;;;;1.68;81.23;100123.68;1682786;85;26104;-80
2021/12/20 02:11:46;;;;;;;6.00;2.40;;;;;;;1.66;81.20;100126.95;1682801;84;27501;-81
2021/12/20 02:14:13;;;;;;;5.53;2.15;;;;;;;1.67;81.41;100121.19;1683242;84;26001;-80
2021/12/20 02:16:40;;;;;;;4.72;2.42;;;;;;;1.67;81.48;100129.11;1683185;85;25826;-81
2021/12/20 02:19:11;;;;;;;5.42;3.02;;;;;;;1.67;81.71;100131.23;1683214;85;26283;-81
2021/12/20 02:21:38;;;;;;;4.78;2.70;;;;;;;1.68;81.70;100125.48;1682892;83;25366;-81
2021/12/20 02:24:05;;;;;;;5.08;2.62;;;;;;;1.70;81.84;100140.20;1683406;84;27498;-80
2021/12/20 02:26:31;;;;;;;6.33;2.92;;;;;;;1.70;81.93;100133.61;1682819;84;25902;-81
2021/12/20 02:29:03;;;;;;;6.22;2.70;;;;;;;1.69;82.07;100139.84;1683357;84;25795;-80
2021/12/20 02:37:30;;;;;;;8.23;3.00;;;;;;;1.70;82.27;100137.56;1683083;84;27492;-80
2021/12/20 02:39:31;;;;;;;5.58;2.47;;;;;;;1.72;82.40;100130.34;1671944;84;26281;-79
2021/12/20 02:41:57;;;;;;;7.67;2.85;;;;;;;1.75;82.58;100131.87;1683005;85;25922;-80
2021/12/20 02:44:27;;;;;;;5.80;3.08;;;;;;;1.75;82.61;100137.15;1683245;84;25858;-80
2021/12/20 02:49:27;;;;;;;3.83;2.27;;;;;;;1.80;82.82;100130.94;1682959;83;27553;-80
2021/12/20 02:52:05;;;;;;;4.30;2.17;;;;;;;1.80;82.78;100118.57;1682645;85;25779;-80
2021/12/20 02:54:32;;;;;;;7.15;2.85;;;;;;;1.79;82.63;100110.80;1682116;85;25353;-80
2021/12/20 02:56:58;;;;;;;5.15;2.40;;;;;;;1.78;82.70;100110.44;1682937;85;25891;-80
2021/12/20 02:59:24;;;;;;;6.60;2.50;;;;;;;1.76;82.50;100120.31;1682940;85;25775;-80
2021/12/20 03:01:59;;;;;;;7.55;2.60;;;;;;;1.74;82.64;100113.87;1682787;84;27470;-80
2021/12/20 03:04:26;;;;;;;6.58;3.30;;;;;;;1.74;82.56;100117.83;1682908;85;25984;-80
2021/12/20 03:07:00;;;;;;;3.40;2.70;;;;;;;1.71;82.58;100112.81;1677162;84;25803;-80
2021/12/20 03:09:33;;;;;;;8.13;2.47;;;;;;;1.69;82.62;100116.09;1673517;85;25898;-80
2021/12/20 03:12:02;;;;;;;8.70;2.72;;;;;;;1.69;82.85;100108.16;1673329;85;25360;-80
2021/12/20 03:14:41;;;;;;;3.60;2.40;;;;;;;1.67;82.79;100108.80;1673697;84;28059;-81
2021/12/20 03:17:04;;;;;;;7.33;3.20;;;;;;;1.64;82.80;100114.38;1637772;87;25777;-80
2021/12/20 03:19:30;;;;;;;3.40;2.60;;;;;;;1.62;83.02;100104.45;1638681;86;26569;-80
2021/12/20 03:21:58;;;;;;;9.15;2.77;;;;;;;1.60;83.27;100105.08;1673453;85;26585;-80
2021/12/20 03:24:24;;;;;;;6.28;2.83;;;;;;;1.61;83.54;100120.41;1673578;85;25804;-79
2021/12/20 03:26:51;;;;;;;4.85;2.17;;;;;;;1.61;83.70;100115.97;1673753;85;27464;-80
2021/12/20 03:29:17;;;;;;;6.47;3.00;;;;;;;1.65;83.89;100113.91;1673673;84;26360;-80
2021/12/20 03:31:44;;;;;;;4.67;2.80;;;;;;;1.68;84.11;100113.59;1673585;85;25942;-80
2021/12/20 03:34:11;;;;;;;5.53;3.35;;;;;;;1.70;84.25;100110.33;1673837;85;25982;-80
2021/12/20 03:36:37;;;;;;;4.90;2.35;;;;;;;1.72;84.71;100103.09;1674043;85;25799;-79
2021/12/20 03:39:06;;;;;;;4.92;3.12;;;;;;;1.69;84.98;100104.20;1673826;85;28288;-80
2021/12/20 03:41:33;;;;;;;4.92;3.40;;;;;;;1.66;84.88;100105.83;1666977;85;25919;-80
2021/12/20 03:44:00;;;;;;;5.12;2.47;;;;;;;1.66;84.83;100110.27;1652053;85;25880;-80
2021/12/20 03:46:26;;;;;;;6.97;2.83;;;;;;;1.64;84.88;100110.42;1624462;87;25862;-80
2021/12/20 03:48:53;;;;;;;5.97;3.02;;;;;;;1.66;84.89;100112.43;1610581;87;25926;-80
2021/12/20 03:51:19;;;;;;;4.00;2.60;;;;;;;1.65;84.98;100114.70;1625348;87;27535;-80
2021/12/20 03:53:46;;;;;;;5.50;2.70;;;;;;;1.65;85.00;100117.34;1625136;87;25893;-80
2021/12/20 03:56:12;;;;;;;4.85;2.62;;;;;;;1.66;85.11;100115.07;1625262;86;25841;-79
2021/12/20 03:58:38;;;;;;;6.03;2.65;;;;;;;1.68;85.13;100123.68;1625260;87;26782;-80
2021/12/20 04:01:10;;;;;;;6.85;3.02;;;;;;;1.70;85.18;100127.01;1633616;86;25862;-80
2021/12/20 04:03:37;;;;;;;3.98;2.72;;;;;;;1.70;85.24;100119.09;1628259;86;27505;-79
2021/12/20 04:06:07;;;;;;;3.67;2.08;;;;;;;1.72;85.29;100121.09;1642958;86;26032;-81
2021/12/20 04:08:33;;;;;;;5.75;2.95;;;;;;;1.75;85.15;100128.75;1630735;86;25919;-82
2021/12/20 04:11:01;;;;;;;6.35;2.60;;;;;;;1.76;85.26;100130.88;1614143;87;25810;-80
2021/12/20 04:13:28;;;;;;;4.65;2.42;;;;;;;1.79;85.22;100126.64;1644071;86;26047;-80
2021/12/20 04:15:55;;;;;;;6.03;2.30;;;;;;;1.81;85.30;100115.45;1649581;86;28803;-80
2021/12/20 04:18:23;;;;;;;4.92;2.83;;;;;;;1.84;85.27;100117.30;1648392;86;25788;-80
2021/12/20 04:20:49;;;;;;;6.45;2.42;;;;;;;1.87;85.33;100128.08;1647419;85;25881;-80
2021/12/20 04:23:16;;;;;;;5.70;2.70;;;;;;;1.89;85.33;100122.16;1633232;86;26138;-80
2021/12/20 04:25:42;;;;;;;5.03;2.33;;;;;;;1.91;85.32;100122.37;1634192;87;26027;-79
2021/12/20 04:28:09;;;;;;;5.50;2.85;;;;;;;1.95;85.37;100129.51;1629177;86;27507;-80
2021/12/20 04:30:35;;;;;;;4.75;2.75;;;;;;;1.95;85.32;100122.91;1659624;86;25714;-80
2021/12/20 04:33:01;;;;;;;3.75;2.30;;;;;;;1.96;85.53;100124.59;1659096;86;25928;-80
2021/12/20 04:35:28;;;;;;;4.65;2.37;;;;;;;1.92;85.63;100118.77;1657345;84;26594;-80
2021/12/20 04:37:57;;;;;;;6.00;2.70;;;;;;;1.92;85.95;100125.37;1624790;86;25829;-80
2021/12/20 04:40:23;;;;;;;7.10;2.50;;;;;;;1.88;86.49;100121.83;1625233;88;27557;-80
2021/12/20 04:42:57;;;;;;;7.03;3.05;;;;;;;1.82;87.10;100120.58;1601863;87;26513;-80
2021/12/20 04:45:26;;;;;;;6.30;3.40;;;;;;;1.76;87.63;100131.72;1636380;86;25888;-80
2021/12/20 04:47:53;;;;;;;3.65;2.67;;;;;;;1.73;87.73;100124.58;1641801;85;25900;-80
2021/12/20 04:50:21;;;;;;;2.72;2.30;;;;;;;1.72;87.81;100121.58;1628849;87;25863;-80
2021/12/20 04:52:48;;;;;;;7.75;2.80;;;;;;;1.74;88.09;100115.66;1610543;87;27508;-81
2021/12/20 04:55:15;;;;;;;5.83;2.95;;;;;;;1.73;88.54;100112.22;1613406;88;25867;-80
2021/12/20 04:57:43;;;;;;;5.10;2.37;;;;;;;1.74;88.20;100118.30;1653424;86;25655;-80
2021/12/20 05:00:15;;;;;;;3.67;2.47;;;;;;;1.74;88.33;100144.70;1649121;85;25785;-80
2021/12/20 05:02:41;;;;;;;4.35;2.85;;;;;;;1.74;88.50;100143.39;1637195;86;25603;-81
2021/12/20 05:05:09;;;;;;;6.50;2.92;;;;;;;1.75;88.38;100135.83;1637341;87;27445;-80
2021/12/20 05:07:38;;;;;;;3.95;2.40;;;;;;;1.77;88.48;100136.03;1614886;86;25731;-80
2021/12/20 05:10:09;;;;;;;6.75;3.15;;;;;;;1.80;88.63;100131.77;1645564;87;25687;-81
2021/12/20 05:12:35;;;;;;;4.28;2.15;;;;;;;1.81;88.47;100133.45;1645194;86;25826;-79
2021/12/20 05:15:01;;;;;;;5.53;2.50;;;;;;;1.84;88.48;100133.15;1645352;86;25652;-80
2021/12/20 05:17:28;;;;;;;3.47;2.42;;;;;;;1.86;88.68;100132.52;1645068;86;28256;-80
2021/12/20 05:19:54;;;;;;;8.08;2.50;;;;;;;1.86;88.56;100151.00;1644853;86;25768;-80
2021/12/20 05:22:20;;;;;;;3.77;2.90;;;;;;;1.87;88.59;100151.36;1644748;86;25944;-79
2021/12/20 05:24:46;;;;;;;6.92;3.25;;;;;;;1.89;88.67;100159.98;1645040;86;26173;-80
2021/12/20 05:27:12;;;;;;;6.85;2.62;;;;;;;1.90;88.86;100158.17;1645393;86;25901;-80
2021/12/20 05:29:39;;;;;;;5.78;2.98;;;;;;;1.88;89.25;100161.45;1646239;86;27688;-79
2021/12/20 05:32:07;;;;;;;4.05;2.92;;;;;;;1.86;89.36;100164.20;1647571;86;25892;-80
2021/12/20 05:34:35;;;;;;;5.62;2.80;;;;;;;1.82;90.05;100166.79;1647459;86;25988;-81
2021/12/20 05:37:02;;;;;;;3.83;3.15;;;;;;;1.80;90.09;100163.94;1653494;86;25839;-80
2021/12/20 05:39:28;;;;;;;6.92;3.65;;;;;;;1.80;90.37;100161.30;1654397;85;25942;-80
2021/12/20 05:41:54;;;;;;;4.05;3.65;;;;;;;1.79;90.44;100160.48;1653833;86;27472;-80
2021/12/20 05:44:21;;;;;;;7.20;4.00;;;;;;;1.79;90.44;100168.41;1653799;86;25792;-80
2021/12/20 05:46:47;;;;;;;5.22;3.37;;;;;;;1.79;91.27;100168.89;1653581;86;25803;-80
2021/12/20 05:49:13;;;;;;;4.33;2.90;;;;;;;1.77;91.29;100186.69;1646142;85;26382;-80
2021/12/20 05:51:40;;;;;;;5.60;3.35;;;;;;;1.77;91.64;100180.92;1644839;87;25905;-80
2021/12/20 05:54:06;;;;;;;5.17;2.35;;;;;;;1.80;91.42;100171.86;1644733;86;28363;-81
2021/12/20 05:56:32;;;;;;;4.58;2.75;;;;;;;1.80;91.64;100183.27;1644740;87;25896;-81
2021/12/20 05:58:58;;;;;;;3.52;2.40;;;;;;;1.81;91.88;100180.14;1644922;87;26520;-80
2021/12/20 06:01:24;;;;;;;5.83;2.20;;;;;;;1.80;91.93;100189.02;1645037;87;25846;-80
2021/12/20 06:03:51;;;;;;;4.87;2.27;;;;;;;1.78;92.27;100194.45;1644811;87;26503;-80
2021/12/20 06:06:17;;;;;;;2.80;2.00;;;;;;;1.80;92.25;100199.59;1648246;85;26754;-80
2021/12/20 06:08:44;;;;;;;2.67;1.82;;;;;;;1.81;92.25;100206.55;1683383;84;25972;-80
2021/12/20 06:11:10;;;;;;;4.97;1.70;;;;;;;1.82;91.92;100197.67;1683284;83;25849;-79
2021/12/20 06:13:36;;;;;;;3.58;1.67;;;;;;;1.85;91.99;100205.29;1682739;84;25865;-80
2021/12/20 06:16:02;;;;;;;3.65;1.45;;;;;;;1.83;92.00;100196.20;1683043;84;26015;-80
2021/12/20 06:18:29;;;;;;;3.67;1.67;;;;;;;1.85;91.91;100195.56;1683135;85;28519;-83
2021/12/20 06:20:55;;;;;;;3.42;1.75;;;;;;;1.86;91.94;100205.14;1683384;84;25874;-80
2021/12/20 06:23:21;;;;;;;2.55;1.40;;;;;;;1.87;91.98;100210.78;1683039;84;26565;-80
2021/12/20 06:25:47;;;;;;;2.60;1.50;;;;;;;1.86;92.08;100214.89;1683268;85;26491;-80
2021/12/20 06:28:14;;;;;;;1.95;1.50;;;;;;;1.86;92.02;100220.98;1683170;85;25778;-81
2021/12/20 06:30:40;;;;;;;1.75;1.60;;;;;;;1.88;92.02;100227.47;1683198;84;27499;-80
2021/12/20 06:33:06;;;;;;;4.05;1.35;;;;;;;1.89;91.81;100236.56;1682662;85;26440;-80
2021/12/20 06:35:33;;;;;;;3.02;1.62;;;;;;;1.90;91.77;100232.96;1683157;83;25775;-80
2021/12/20 06:38:01;;;;;;;1.80;1.50;;;;;;;1.94;91.64;100241.42;1683284;85;25858;-80
2021/12/20 06:40:30;;;;;;;1.85;1.30;;;;;;;1.95;91.62;100245.23;1683742;84;25664;-80
2021/12/20 06:42:56;;;;;;;3.47;1.70;;;;;;;1.96;91.47;100247.40;1683191;84;27534;-79
2021/12/20 06:45:23;;;;;;;1.60;1.42;;;;;;;1.97;91.49;100249.89;1683133;84;25901;-80
2021/12/20 06:47:51;;;;;;;1.62;1.40;;;;;;;1.98;91.40;100248.93;1682770;85;26016;-80
2021/12/20 06:50:17;;;;;;;2.22;1.20;;;;;;;2.01;91.44;100250.47;1683106;84;26710;-79
2021/12/20 06:52:43;;;;;;;4.22;1.37;;;;;;;2.00;91.40;100248.30;1683021;84;25816;-81
2021/12/20 06:55:10;;;;;;;2.87;1.57;;;;;;;2.01;91.42;100250.47;1683401;84;28299;-80
2021/12/20 06:57:36;;;;;;;1.45;1.30;;;;;;;1.99;91.31;100261.66;1683126;84;25903;-80
2021/12/20 07:00:04;;;;;;;3.83;1.85;;;;;;;1.98;91.41;100274.02;1683283;84;25326;-80
2021/12/20 07:02:30;;;;;;;1.80;1.40;;;;;;;1.98;91.22;100270.54;1682921;84;25903;-80
2021/12/20 07:04:57;;;;;;;1.87;1.47;;;;;;;1.99;91.25;100276.19;1682882;83;25944;-80
2021/12/20 07:07:23;;;;;;;3.30;1.65;;;;;;;1.99;91.26;100279.64;1683174;84;27528;-79
2021/12/20 07:09:49;;;;;;;2.00;1.62;;;;;;;2.00;91.44;100278.68;1683299;84;26773;-79
2021/12/20 07:12:16;;;;;;;3.27;1.45;;;;;;;1.99;91.44;100280.15;1682585;85;25917;-79
2021/12/20 07:14:42;;;;;;;5.40;1.67;;;;;;;1.98;91.54;100289.88;1682937;84;25914;-79
2021/12/20 07:17:08;;;;;;;3.33;1.67;;;;;;;1.97;91.64;100293.95;1682736;83;25849;-79
2021/12/20 07:19:34;;;;;;;3.08;1.45;;;;;;;1.96;91.75;100296.27;1682933;84;27644;-82
2021/12/20 07:22:01;;;;;;;1.40;1.30;;;;;;;1.98;91.69;100296.48;1682707;85;25801;-80
2021/12/20 07:24:27;;;;;;;2.22;1.67;;;;;;;1.98;91.60;100302.23;1683082;84;25811;-79
2021/12/20 07:26:53;;;;;;;4.65;2.37;;;;;;;1.99;91.61;100307.88;1682807;84;25992;-80
2021/12/20 07:29:20;;;;;;;2.30;1.55;;;;;;;2.00;91.59;100309.05;1682957;84;26004;-79
2021/12/20 07:31:46;;;;;;;2.40;1.42;;;;;;;2.02;91.45;100300.50;1682594;85;27535;-80
2021/12/20 07:34:13;;;;;;;2.77;1.80;;;;;;;2.03;91.39;100306.11;1682547;85;26024;-80
2021/12/20 07:36:39;;;;;;;3.22;1.70;;;;;;;2.05;91.27;100304.68;1683092;83;25767;-79
2021/12/20 07:39:06;;;;;;;1.62;1.52;;;;;;;2.05;91.29;100307.32;1683658;84;26493;-80
2021/12/20 07:41:33;;;;;;;2.83;1.40;;;;;;;2.06;91.24;100307.66;1682960;85;25821;-80
2021/12/20 07:43:59;;;;;;;2.55;1.65;;;;;;;2.04;91.41;100302.52;1683085;83;28348;-80
2021/12/20 07:46:26;;;;;;;2.12;1.52;;;;;;;2.06;91.38;100305.85;1682879;84;26010;-80
2021/12/20 07:48:52;;;;;;;2.65;1.98;;;;;;;2.09;91.38;100307.38;1682905;84;25925;-80
2021/12/20 07:51:20;;;;;;;2.70;2.12;;;;;;;2.10;91.40;100311.20;1682998;84;26247;-81
2021/12/20 07:53:46;;;;;;;6.20;2.95;;;;;;;2.11;91.42;100314.20;1684386;84;25628;-80
2021/12/20 07:56:13;;;;;;;4.25;2.40;;;;;;;2.08;91.56;100306.55;1684230;84;27477;-80
2021/12/20 07:58:39;;;;;;;2.42;2.22;;;;;;;2.10;91.58;100319.61;1683383;84;25582;-80
2021/12/20 08:01:05;;;;;;;2.80;1.82;;;;;;;2.11;91.63;100310.23;1683019;84;25893;-80
2021/12/20 08:03:34;;;;;;;3.05;2.10;;;;;;;2.11;91.79;100315.52;1682958;84;25782;-81
2021/12/20 08:06:00;;;;;;;3.92;2.75;;;;;;;2.11;91.73;100314.68;1683516;85;25743;-80
2021/12/20 08:08:26;;;;;;;5.12;2.10;;;;;;;2.13;92.01;100316.70;1648982;86;28155;-80
2021/12/20 08:10:54;;;;;;;4.87;2.00;;;;;;;2.13;91.89;100318.02;1653646;86;26368;-80
2021/12/20 08:13:20;;;;;;;4.72;2.87;;;;;;;2.12;91.76;100321.14;1653476;86;25828;-79
2021/12/20 08:15:46;;;;;;;4.10;2.25;;;;;;;2.10;91.90;100328.84;1653605;86;26037;-82
2021/12/20 08:18:13;;;;;;;4.22;2.25;;;;;;;2.08;91.79;100327.68;1653596;86;26533;-79
2021/12/20 08:20:40;;;;;;;2.85;2.00;;;;;;;2.06;91.96;100325.66;1653649;86;27662;-80
2021/12/20 08:23:06;;;;;;;4.15;2.20;;;;;;;2.06;92.03;100335.39;1653486;86;25971;-79
2021/12/20 08:25:35;;;;;;;4.20;2.40;;;;;;;2.03;91.93;100332.53;1648258;86;26073;-81
2021/12/20 08:28:02;;;;;;;4.55;2.27;;;;;;;2.02;91.90;100336.16;1630467;87;25968;-80
2021/12/20 08:30:29;;;;;;;3.65;1.85;;;;;;;2.03;91.86;100334.36;1640172;85;25823;-79
2021/12/20 08:32:55;;;;;;;2.77;2.15;;;;;;;2.06;91.73;100342.83;1646383;86;27195;-80
2021/12/20 08:35:21;;;;;;;3.30;1.85;;;;;;;2.06;91.71;100330.95;1645968;86;25706;-80
2021/12/20 08:37:48;;;;;;;2.72;2.10;;;;;;;2.07;91.69;100333.11;1649146;86;25762;-80
2021/12/20 08:40:16;;;;;;;3.00;1.30;;;;;;;2.07;91.57;100343.67;1650157;86;26023;-79
2021/12/20 08:42:44;;;;;;;3.98;2.30;;;;;;;2.09;91.21;100345.69;1648925;86;25901;-79
2021/12/20 08:45:12;;;;;;;3.15;2.30;;;;;;;2.09;91.17;100337.77;1646793;85;27552;-80
2021/12/20 08:47:39;;;;;;;6.15;1.90;;;;;;;2.10;91.26;100345.55;1648566;86;25905;-80
2021/12/20 08:50:11;;;;;;;5.92;2.92;;;;;;;2.13;91.63;100336.03;1648050;86;25813;-80
2021/12/20 08:52:37;;;;;;;4.03;2.58;;;;;;;2.12;90.92;100339.63;1649850;86;25782;-80
2021/12/20 08:55:06;;;;;;;4.67;2.20;;;;;;;2.13;91.18;100343.12;1649903;86;25634;-80
2021/12/20 08:57:32;;;;;;;4.15;1.95;;;;;;;2.13;90.88;100338.67;1648267;86;27564;-80
2021/12/20 08:59:59;;;;;;;3.72;2.10;;;;;;;2.16;91.04;100348.14;1651336;85;25845;-80
2021/12/20 09:02:26;;;;;;;3.45;2.00;;;;;;;2.19;90.86;100345.20;1648053;86;25850;-80
2021/12/20 09:04:52;;;;;;;5.40;2.40;;;;;;;2.21;90.61;100347.20;1648081;86;25795;-80
2021/12/20 09:07:18;;;;;;;4.65;2.40;;;;;;;2.23;90.48;100363.28;1659413;85;25853;-80
2021/12/20 09:09:47;;;;;;;4.30;1.82;;;;;;;2.25;90.54;100369.26;1683552;84;27461;-80
2021/12/20 09:12:16;;;;;;;4.80;2.55;;;;;;;2.26;90.36;100381.51;1682719;83;26005;-80
2021/12/20 09:14:42;;;;;;;2.37;1.60;;;;;;;2.22;90.39;100374.80;1683157;84;25854;-79
2021/12/20 09:17:09;;;;;;;5.45;2.50;;;;;;;2.19;90.62;100376.91;1682929;84;25836;-80
2021/12/20 09:19:36;;;;;;;6.10;2.70;;;;;;;2.18;90.58;100374.73;1683471;84;25932;-79
2021/12/20 09:22:06;;;;;;;5.22;1.87;;;;;;;2.19;90.83;100368.97;1684109;84;27486;-81
2021/12/20 09:24:36;;;;;;;2.67;2.02;;;;;;;2.22;90.63;100374.00;1684398;83;25648;-80
2021/12/20 09:27:04;;;;;;;2.87;1.92;;;;;;;2.24;90.34;100379.50;1683161;84;26138;-80
2021/12/20 09:29:30;;;;;;;3.55;2.50;;;;;;;2.28;90.54;100378.72;1683414;84;26565;-80
2021/12/20 09:31:58;;;;;;;3.27;1.62;;;;;;;2.28;90.00;100386.17;1682855;84;25834;-79
2021/12/20 09:34:24;;;;;;;4.03;2.17;;;;;;;2.27;90.45;100384.48;1661076;84;27473;-80
2021/12/20 09:36:53;;;;;;;3.83;2.10;;;;;;;2.25;90.77;100395.68;1645239;87;26161;-80
2021/12/20 09:39:20;;;;;;;4.78;1.92;;;;;;;2.21;91.13;100394.30;1645570;85;26074;-79
2021/12/20 09:44:15;;;;;;;4.47;2.20;;;;;;;2.14;92.14;100405.05;1645250;86;25812;-83
2021/12/20 09:46:42;;;;;;;5.30;2.47;;;;;;;2.13;92.38;100402.56;1645028;87;27488;-82
2021/12/20 09:49:10;;;;;;;4.62;2.12;;;;;;;2.10;92.94;100406.30;1646457;86;25625;-82
2021/12/20 09:51:36;;;;;;;3.52;2.30;;;;;;;2.09;92.95;100411.27;1646183;87;25603;-80
2021/12/20 09:54:04;;;;;;;6.03;2.75;;;;;;;2.09;93.19;100409.09;1646211;85;26590;-81
2021/12/20 09:56:32;;;;;;;4.37;3.37;;;;;;;2.10;93.34;100420.00;1645186;87;25787;-80
2021/12/20 09:59:00;;;;;;;6.90;3.27;;;;;;;2.09;93.10;100416.55;1645360;87;27560;-80
2021/12/20 10:01:28;;;;;;;4.30;3.25;;;;;;;2.06;93.27;100420.77;1644591;87;26070;-80
2021/12/20 10:03:56;;;;;;;4.37;2.75;;;;;;;2.04;93.17;100425.83;1645308;87;25931;-80
2021/12/20 10:06:22;;;;;;;4.10;2.70;;;;;;;2.03;93.52;100426.82;1645376;87;25840;-80
2021/12/20 10:08:51;;;;;;;5.83;2.70;;;;;;;2.03;93.45;100429.47;1676921;83;25759;-80
2021/12/20 10:11:31;;;;;;;6.20;3.02;;;;;;;2.06;93.64;100429.17;1682900;85;27553;-80
2021/12/20 10:14:09;;;;;;;4.40;2.83;;;;;;;2.09;93.71;100433.72;1682682;84;33762;-80
2021/12/20 10:16:37;;;;;;;4.85;2.92;;;;;;;2.09;93.45;100430.23;1682867;84;25810;-80
2021/12/20 10:19:09;;;;;;;5.97;3.00;;;;;;;2.09;93.34;100433.72;1684179;84;25770;-80
2021/12/20 10:21:38;;;;;;;4.78;2.92;;;;;;;2.09;93.26;100436.36;1660483;85;25924;-80
2021/12/20 10:24:05;;;;;;;4.03;2.85;;;;;;;2.10;93.45;100438.48;1684401;85;27541;-79
2021/12/20 10:26:41;;;;;;;3.70;2.70;;;;;;;2.08;93.25;100434.67;1683083;84;25868;-80
2021/12/20 10:29:18;;;;;;;4.20;2.83;;;;;;;2.10;93.22;100439.81;1683387;84;25349;-80
2021/12/20 10:31:45;;;;;;;4.90;2.50;;;;;;;2.11;93.21;100448.10;1682003;85;25932;-80
2021/12/20 10:34:13;;;;;;;6.28;3.77;;;;;;;2.10;93.00;100431.41;1683281;84;25951;-79
2021/12/20 10:36:55;;;;;;;5.72;2.85;;;;;;;2.11;92.80;100447.63;1683309;85;28247;-79
2021/12/20 10:39:43;;;;;;;6.25;3.30;;;;;;;2.13;92.33;100454.08;1682802;84;26432;-79
2021/12/20 10:42:25;;;;;;;6.12;2.55;;;;;;;2.13;92.40;100446.16;1682894;84;25942;-81
2021/12/20 10:45:09;;;;;;;3.47;2.00;;;;;;;2.11;91.80;100445.45;1682676;85;26640;-80
2021/12/20 10:47:36;;;;;;;2.15;1.50;;;;;;;2.05;89.43;100452.11;1682889;85;25958;-80
2021/12/20 10:50:31;;;;;;;2.72;1.40;;;;;;;2.00;87.83;100448.21;1684397;84;27654;-79
2021/12/20 10:53:15;;;;;;;1.95;1.35;;;;;;;1.97;87.19;100449.79;1684365;85;25847;-80
2021/12/20 10:55:53;;;;;;;2.02;1.27;;;;;;;1.89;86.20;100458.41;1682975;83;25595;-79
2021/12/20 10:58:34;;;;;;;1.98;1.07;;;;;;;1.82;84.37;100455.94;1683051;84;25947;-80
2021/12/20 11:01:22;;;;;;;1.82;1.40;;;;;;;1.67;83.16;100455.15;1682525;85;33761;-80
2021/12/20 11:04:00;;;;;;;4.15;1.10;;;;;;;1.55;84.44;100462.31;1682875;85;27487;-80
2021/12/20 11:06:41;;;;;;;;;;;;;;;1.42;84.89;100467.82;1685753;84;26108;-80
2021/12/20 11:09:05;;;;;;;1.20;0.98;;;;;;;1.32;86.11;100489.38;1673046;85;26533;-79
2021/12/20 11:11:35;;;;;;;1.12;0.93;;;;;;;1.18;86.70;100485.73;1673985;84;25903;-80
2021/12/20 11:14:05;;;;;;;2.80;1.40;;;;;;;1.09;88.04;100493.09;1673807;85;25792;-79
2021/12/20 11:16:39;;;;;;;3.47;1.30;;;;;;;1.02;88.47;100499.03;1673791;85;28268;-80
2021/12/20 11:19:29;;;;;;;1.98;1.20;;;;;;;0.93;88.91;100497.15;1674046;85;25891;-80
2021/12/20 11:22:04;;;;;;;3.90;1.45;;;;;;;0.88;89.31;100510.72;1673687;84;26615;-80
2021/12/20 11:24:36;;;;;;;3.22;1.75;;;;;;;0.88;89.28;100514.67;1674093;85;26563;-80
2021/12/20 11:27:07;;;;;;;3.98;2.00;;;;;;;0.81;87.93;100510.89;1673806;85;25819;-79
2021/12/20 11:29:35;;;;;;;3.85;1.77;;;;;;;0.76;88.63;100510.42;1673171;85;27477;-79
2021/12/20 11:32:03;;;;;;;3.33;1.50;;;;;;;0.73;88.78;100510.66;1673646;85;25755;-80
2021/12/20 11:34:30;;;;;;;2.60;1.30;;;;;;;0.72;88.70;100515.13;1673735;84;26534;-79
2021/12/20 11:36:58;;;;;;;3.12;1.37;;;;;;;0.70;87.47;100514.41;1673902;85;26493;-80
2021/12/20 11:39:25;;;;;;;4.10;1.50;;;;;;;0.73;86.63;100522.05;1674145;85;25720;-80
2021/12/20 11:41:51;;;;;;;1.85;1.35;;;;;;;0.78;86.81;100522.52;1673809;85;27485;-80
2021/12/20 11:44:21;;;;;;;3.47;1.27;;;;;;;0.86;85.74;100526.30;1673853;85;25770;-79
2021/12/20 11:47:09;;;;;;;2.87;1.20;;;;;;;0.90;84.98;100529.88;1674283;85;25823;-79
2021/12/20 11:49:37;;;;;;;2.45;1.30;;;;;;;0.90;84.20;100525.92;1673800;84;26418;-79
2021/12/20 11:52:17;;;;;;;2.02;1.30;;;;;;;0.92;83.70;100530.59;1673614;85;26075;-80
2021/12/20 11:54:54;;;;;;;1.95;1.20;;;;;;;0.94;82.97;100527.34;1673595;85;28063;-80